sensor_id;sensor_type;location;lat;lon;timestamp;P1;durP1;ratioP1;P2;durP2;ratioP2
27618;SDS011;15039;50.830;4.730;2023-05-14T00:00:16;39.03;;;28.92;;
27618;SDS011;15039;50.830;4.730;2023-05-14T00:06:04;35.17;;;28.40;;
27618;SDS011;15039;50.830;4.730;2023-05-14T00:08:30;40.60;;;29.38;;
27618;SDS011;15039;50.830;4.730;2023-05-14T00:11:04;36.88;;;27.88;;
27618;SDS011;15039;50.830;4.730;2023-05-14T00:13:33;40.88;;;29.55;;
27618;SDS011;15039;50.830;4.730;2023-05-14T00:16:07;41.75;;;28.50;;
27618;SDS011;15039;50.830;4.730;2023-05-14T00:18:38;43.47;;;32.15;;
27618;SDS011;15039;50.830;4.730;2023-05-14T00:21:04;41.67;;;30.55;;
27618;SDS011;15039;50.830;4.730;2023-05-14T00:23:29;42.60;;;31.40;;
27618;SDS011;15039;50.830;4.730;2023-05-14T00:25:55;43.00;;;31.23;;
27618;SDS011;15039;50.830;4.730;2023-05-14T00:28:24;46.13;;;31.50;;
27618;SDS011;15039;50.830;4.730;2023-05-14T00:30:49;43.72;;;31.48;;
27618;SDS011;15039;50.830;4.730;2023-05-14T00:33:15;39.50;;;30.98;;
27618;SDS011;15039;50.830;4.730;2023-05-14T00:35:41;40.53;;;31.58;;
27618;SDS011;15039;50.830;4.730;2023-05-14T00:38:07;43.97;;;32.53;;
27618;SDS011;15039;50.830;4.730;2023-05-14T00:40:33;45.00;;;33.53;;
27618;SDS011;15039;50.830;4.730;2023-05-14T00:42:58;43.28;;;32.08;;
27618;SDS011;15039;50.830;4.730;2023-05-14T00:45:24;45.22;;;32.33;;
27618;SDS011;15039;50.830;4.730;2023-05-14T00:47:52;43.95;;;32.40;;
27618;SDS011;15039;50.830;4.730;2023-05-14T00:50:21;46.53;;;32.78;;
27618;SDS011;15039;50.830;4.730;2023-05-14T00:52:47;44.05;;;32.95;;
27618;SDS011;15039;50.830;4.730;2023-05-14T00:55:13;43.33;;;32.67;;
27618;SDS011;15039;50.830;4.730;2023-05-14T00:57:40;50.65;;;35.22;;
27618;SDS011;15039;50.830;4.730;2023-05-14T01:00:06;44.08;;;33.65;;
27618;SDS011;15039;50.830;4.730;2023-05-14T01:05:17;46.55;;;35.38;;
27618;SDS011;15039;50.830;4.730;2023-05-14T01:10:38;51.13;;;34.53;;
27618;SDS011;15039;50.830;4.730;2023-05-14T01:15:55;55.20;;;37.63;;
27618;SDS011;15039;50.830;4.730;2023-05-14T01:18:24;52.50;;;35.92;;
27618;SDS011;15039;50.830;4.730;2023-05-14T01:20:52;54.47;;;37.22;;
27618;SDS011;15039;50.830;4.730;2023-05-14T01:23:18;54.90;;;38.05;;
27618;SDS011;15039;50.830;4.730;2023-05-14T01:25:44;58.35;;;39.33;;
27618;SDS011;15039;50.830;4.730;2023-05-14T01:36:57;65.60;;;41.15;;
27618;SDS011;15039;50.830;4.730;2023-05-14T01:39:25;61.08;;;41.70;;
27618;SDS011;15039;50.830;4.730;2023-05-14T01:41:52;63.55;;;43.67;;
27618;SDS011;15039;50.830;4.730;2023-05-14T01:44:18;67.93;;;44.10;;
27618;SDS011;15039;50.830;4.730;2023-05-14T01:46:45;68.50;;;43.72;;
27618;SDS011;15039;50.830;4.730;2023-05-14T01:49:11;72.57;;;44.45;;
27618;SDS011;15039;50.830;4.730;2023-05-14T01:51:36;69.75;;;44.95;;
27618;SDS011;15039;50.830;4.730;2023-05-14T01:54:02;76.57;;;46.47;;
27618;SDS011;15039;50.830;4.730;2023-05-14T01:56:28;77.10;;;47.13;;
27618;SDS011;15039;50.830;4.730;2023-05-14T01:58:54;78.68;;;46.92;;
27618;SDS011;15039;50.830;4.730;2023-05-14T02:01:24;75.65;;;46.70;;
27618;SDS011;15039;50.830;4.730;2023-05-14T02:03:50;78.38;;;47.45;;
27618;SDS011;15039;50.830;4.730;2023-05-14T02:06:15;78.78;;;47.13;;
27618;SDS011;15039;50.830;4.730;2023-05-14T02:08:41;75.32;;;46.33;;
27618;SDS011;15039;50.830;4.730;2023-05-14T02:11:07;80.50;;;47.92;;
27618;SDS011;15039;50.830;4.730;2023-05-14T02:13:32;87.22;;;48.55;;
27618;SDS011;15039;50.830;4.730;2023-05-14T02:16:04;85.20;;;49.83;;
27618;SDS011;15039;50.830;4.730;2023-05-14T02:18:30;83.40;;;48.58;;
27618;SDS011;15039;50.830;4.730;2023-05-14T02:20:55;83.22;;;49.08;;
27618;SDS011;15039;50.830;4.730;2023-05-14T02:23:23;91.00;;;50.97;;
27618;SDS011;15039;50.830;4.730;2023-05-14T02:25:48;88.15;;;50.05;;
27618;SDS011;15039;50.830;4.730;2023-05-14T02:28:14;79.55;;;49.25;;
27618;SDS011;15039;50.830;4.730;2023-05-14T02:30:40;87.97;;;51.42;;
27618;SDS011;15039;50.830;4.730;2023-05-14T02:33:05;86.70;;;50.22;;
27618;SDS011;15039;50.830;4.730;2023-05-14T02:35:31;92.20;;;52.85;;
27618;SDS011;15039;50.830;4.730;2023-05-14T02:37:57;87.00;;;49.83;;
27618;SDS011;15039;50.830;4.730;2023-05-14T02:45:18;89.78;;;48.63;;
27618;SDS011;15039;50.830;4.730;2023-05-14T02:47:45;96.07;;;51.97;;
27618;SDS011;15039;50.830;4.730;2023-05-14T02:50:10;94.45;;;52.72;;
27618;SDS011;15039;50.830;4.730;2023-05-14T02:52:36;85.80;;;49.63;;
27618;SDS011;15039;50.830;4.730;2023-05-14T02:55:02;95.57;;;51.63;;
27618;SDS011;15039;50.830;4.730;2023-05-14T02:57:28;87.70;;;49.38;;
27618;SDS011;15039;50.830;4.730;2023-05-14T02:59:54;96.55;;;51.92;;
27618;SDS011;15039;50.830;4.730;2023-05-14T03:02:20;99.25;;;50.60;;
27618;SDS011;15039;50.830;4.730;2023-05-14T03:04:45;92.35;;;50.28;;
27618;SDS011;15039;50.830;4.730;2023-05-14T03:07:11;92.85;;;50.50;;
27618;SDS011;15039;50.830;4.730;2023-05-14T03:09:37;99.13;;;50.58;;
27618;SDS011;15039;50.830;4.730;2023-05-14T03:12:03;93.20;;;49.95;;
27618;SDS011;15039;50.830;4.730;2023-05-14T03:14:29;87.75;;;49.35;;
27618;SDS011;15039;50.830;4.730;2023-05-14T03:16:54;92.13;;;49.15;;
27618;SDS011;15039;50.830;4.730;2023-05-14T03:19:20;90.93;;;50.72;;
27618;SDS011;15039;50.830;4.730;2023-05-14T03:21:46;94.80;;;50.78;;
27618;SDS011;15039;50.830;4.730;2023-05-14T03:24:15;94.57;;;51.20;;
27618;SDS011;15039;50.830;4.730;2023-05-14T03:26:40;90.50;;;49.65;;
27618;SDS011;15039;50.830;4.730;2023-05-14T03:29:06;89.85;;;48.83;;
27618;SDS011;15039;50.830;4.730;2023-05-14T03:31:32;88.25;;;51.15;;
27618;SDS011;15039;50.830;4.730;2023-05-14T03:33:58;90.53;;;51.22;;
27618;SDS011;15039;50.830;4.730;2023-05-14T03:36:23;89.38;;;50.28;;
27618;SDS011;15039;50.830;4.730;2023-05-14T03:38:49;86.63;;;47.63;;
27618;SDS011;15039;50.830;4.730;2023-05-14T03:41:18;90.33;;;49.10;;
27618;SDS011;15039;50.830;4.730;2023-05-14T03:43:56;89.70;;;47.97;;
27618;SDS011;15039;50.830;4.730;2023-05-14T03:49:13;84.18;;;49.03;;
27618;SDS011;15039;50.830;4.730;2023-05-14T03:51:39;87.40;;;48.17;;
27618;SDS011;15039;50.830;4.730;2023-05-14T03:54:05;80.25;;;46.38;;
27618;SDS011;15039;50.830;4.730;2023-05-14T03:56:31;80.32;;;47.08;;
27618;SDS011;15039;50.830;4.730;2023-05-14T03:58:57;87.82;;;46.13;;
27618;SDS011;15039;50.830;4.730;2023-05-14T04:01:38;84.07;;;46.83;;
27618;SDS011;15039;50.830;4.730;2023-05-14T04:04:16;77.65;;;45.92;;
27618;SDS011;15039;50.830;4.730;2023-05-14T04:06:41;82.18;;;46.72;;
27618;SDS011;15039;50.830;4.730;2023-05-14T04:09:07;78.47;;;46.25;;
27618;SDS011;15039;50.830;4.730;2023-05-14T04:14:34;84.00;;;45.83;;
27618;SDS011;15039;50.830;4.730;2023-05-14T04:17:00;73.50;;;45.15;;
27618;SDS011;15039;50.830;4.730;2023-05-14T04:22:01;80.53;;;45.67;;
27618;SDS011;15039;50.830;4.730;2023-05-14T04:24:27;82.55;;;46.38;;
27618;SDS011;15039;50.830;4.730;2023-05-14T04:26:59;84.15;;;45.35;;
27618;SDS011;15039;50.830;4.730;2023-05-14T04:29:25;79.95;;;46.15;;
27618;SDS011;15039;50.830;4.730;2023-05-14T04:31:50;78.38;;;44.95;;
27618;SDS011;15039;50.830;4.730;2023-05-14T04:34:16;80.90;;;46.05;;
27618;SDS011;15039;50.830;4.730;2023-05-14T04:36:42;80.20;;;45.67;;
27618;SDS011;15039;50.830;4.730;2023-05-14T04:39:07;77.80;;;45.15;;
27618;SDS011;15039;50.830;4.730;2023-05-14T04:41:33;80.18;;;44.90;;
27618;SDS011;15039;50.830;4.730;2023-05-14T04:44:01;73.63;;;44.22;;
27618;SDS011;15039;50.830;4.730;2023-05-14T04:50:02;74.18;;;42.30;;
27618;SDS011;15039;50.830;4.730;2023-05-14T04:52:28;78.97;;;43.08;;
27618;SDS011;15039;50.830;4.730;2023-05-14T04:54:55;67.15;;;40.20;;
27618;SDS011;15039;50.830;4.730;2023-05-14T04:57:22;72.53;;;42.10;;
27618;SDS011;15039;50.830;4.730;2023-05-14T04:59:48;74.65;;;42.10;;
27618;SDS011;15039;50.830;4.730;2023-05-14T05:02:14;69.05;;;41.70;;
27618;SDS011;15039;50.830;4.730;2023-05-14T05:04:40;66.57;;;39.45;;
27618;SDS011;15039;50.830;4.730;2023-05-14T05:07:05;72.28;;;40.35;;
27618;SDS011;15039;50.830;4.730;2023-05-14T05:09:41;61.15;;;38.55;;
27618;SDS011;15039;50.830;4.730;2023-05-14T05:12:12;63.50;;;38.42;;
27618;SDS011;15039;50.830;4.730;2023-05-14T05:14:38;62.20;;;39.17;;
27618;SDS011;15039;50.830;4.730;2023-05-14T05:17:06;59.33;;;37.47;;
27618;SDS011;15039;50.830;4.730;2023-05-14T05:19:57;63.15;;;37.28;;
27618;SDS011;15039;50.830;4.730;2023-05-14T05:22:23;62.20;;;37.30;;
27618;SDS011;15039;50.830;4.730;2023-05-14T05:24:48;61.50;;;38.90;;
27618;SDS011;15039;50.830;4.730;2023-05-14T05:27:14;61.97;;;37.95;;
27618;SDS011;15039;50.830;4.730;2023-05-14T05:29:40;57.33;;;37.30;;
27618;SDS011;15039;50.830;4.730;2023-05-14T05:32:11;52.55;;;34.85;;
27618;SDS011;15039;50.830;4.730;2023-05-14T05:34:37;58.03;;;35.05;;
27618;SDS011;15039;50.830;4.730;2023-05-14T05:37:03;58.40;;;34.97;;
27618;SDS011;15039;50.830;4.730;2023-05-14T05:39:30;51.75;;;34.10;;
27618;SDS011;15039;50.830;4.730;2023-05-14T05:41:59;54.80;;;34.45;;
27618;SDS011;15039;50.830;4.730;2023-05-14T05:44:28;55.20;;;34.67;;
27618;SDS011;15039;50.830;4.730;2023-05-14T05:46:54;57.38;;;34.78;;
27618;SDS011;15039;50.830;4.730;2023-05-14T05:49:21;54.25;;;32.88;;
27618;SDS011;15039;50.830;4.730;2023-05-14T05:51:47;54.17;;;35.47;;
27618;SDS011;15039;50.830;4.730;2023-05-14T05:54:13;50.55;;;34.30;;
27618;SDS011;15039;50.830;4.730;2023-05-14T05:56:40;57.92;;;34.08;;
27618;SDS011;15039;50.830;4.730;2023-05-14T05:59:18;51.45;;;33.63;;
27618;SDS011;15039;50.830;4.730;2023-05-14T06:01:56;51.38;;;34.53;;
27618;SDS011;15039;50.830;4.730;2023-05-14T06:04:22;52.35;;;31.88;;
27618;SDS011;15039;50.830;4.730;2023-05-14T06:06:53;53.90;;;31.45;;
27618;SDS011;15039;50.830;4.730;2023-05-14T06:09:26;44.17;;;30.42;;
27618;SDS011;15039;50.830;4.730;2023-05-14T06:11:52;47.60;;;31.38;;
27618;SDS011;15039;50.830;4.730;2023-05-14T06:14:18;47.78;;;31.40;;
27618;SDS011;15039;50.830;4.730;2023-05-14T06:16:43;40.55;;;29.98;;
27618;SDS011;15039;50.830;4.730;2023-05-14T06:19:18;37.88;;;28.63;;
27618;SDS011;15039;50.830;4.730;2023-05-14T06:21:49;42.47;;;30.10;;
27618;SDS011;15039;50.830;4.730;2023-05-14T06:24:14;37.58;;;27.15;;
27618;SDS011;15039;50.830;4.730;2023-05-14T06:26:40;38.55;;;28.23;;
27618;SDS011;15039;50.830;4.730;2023-05-14T06:29:06;37.70;;;28.50;;
27618;SDS011;15039;50.830;4.730;2023-05-14T06:31:34;44.20;;;26.83;;
27618;SDS011;15039;50.830;4.730;2023-05-14T06:34:00;38.15;;;26.88;;
27618;SDS011;15039;50.830;4.730;2023-05-14T06:36:26;38.33;;;27.25;;
27618;SDS011;15039;50.830;4.730;2023-05-14T06:38:51;36.85;;;26.35;;
27618;SDS011;15039;50.830;4.730;2023-05-14T06:41:17;37.25;;;27.08;;
27618;SDS011;15039;50.830;4.730;2023-05-14T06:43:46;38.65;;;27.17;;
27618;SDS011;15039;50.830;4.730;2023-05-14T06:46:13;44.28;;;28.08;;
27618;SDS011;15039;50.830;4.730;2023-05-14T06:48:38;33.88;;;25.20;;
27618;SDS011;15039;50.830;4.730;2023-05-14T06:51:04;42.17;;;26.25;;
27618;SDS011;15039;50.830;4.730;2023-05-14T06:53:30;38.67;;;26.25;;
27618;SDS011;15039;50.830;4.730;2023-05-14T06:55:56;39.67;;;26.33;;
27618;SDS011;15039;50.830;4.730;2023-05-14T06:58:23;38.20;;;26.55;;
27618;SDS011;15039;50.830;4.730;2023-05-14T07:00:48;34.92;;;25.23;;
27618;SDS011;15039;50.830;4.730;2023-05-14T07:03:14;34.58;;;25.15;;
27618;SDS011;15039;50.830;4.730;2023-05-14T07:05:40;34.55;;;26.00;;
27618;SDS011;15039;50.830;4.730;2023-05-14T07:08:06;34.88;;;24.30;;
27618;SDS011;15039;50.830;4.730;2023-05-14T07:10:31;34.67;;;25.13;;
27618;SDS011;15039;50.830;4.730;2023-05-14T07:12:57;38.85;;;25.80;;
27618;SDS011;15039;50.830;4.730;2023-05-14T07:15:23;33.40;;;24.65;;
27618;SDS011;15039;50.830;4.730;2023-05-14T07:17:48;33.58;;;25.05;;
27618;SDS011;15039;50.830;4.730;2023-05-14T07:20:14;35.83;;;25.33;;
27618;SDS011;15039;50.830;4.730;2023-05-14T07:22:45;38.83;;;26.27;;
27618;SDS011;15039;50.830;4.730;2023-05-14T07:25:11;39.30;;;25.58;;
27618;SDS011;15039;50.830;4.730;2023-05-14T07:27:40;37.15;;;25.08;;
27618;SDS011;15039;50.830;4.730;2023-05-14T07:30:06;32.13;;;23.70;;
27618;SDS011;15039;50.830;4.730;2023-05-14T07:32:32;30.45;;;23.00;;
27618;SDS011;15039;50.830;4.730;2023-05-14T07:34:58;31.15;;;24.10;;
27618;SDS011;15039;50.830;4.730;2023-05-14T07:37:23;31.17;;;23.50;;
27618;SDS011;15039;50.830;4.730;2023-05-14T07:39:59;32.95;;;23.85;;
27618;SDS011;15039;50.830;4.730;2023-05-14T07:42:25;29.98;;;22.27;;
27618;SDS011;15039;50.830;4.730;2023-05-14T07:44:53;32.38;;;23.50;;
27618;SDS011;15039;50.830;4.730;2023-05-14T07:47:18;37.83;;;24.10;;
27618;SDS011;15039;50.830;4.730;2023-05-14T07:49:44;31.65;;;22.60;;
27618;SDS011;15039;50.830;4.730;2023-05-14T07:52:09;28.30;;;21.67;;
27618;SDS011;15039;50.830;4.730;2023-05-14T07:54:35;34.67;;;22.95;;
27618;SDS011;15039;50.830;4.730;2023-05-14T07:57:01;33.60;;;23.88;;
27618;SDS011;15039;50.830;4.730;2023-05-14T07:59:26;34.97;;;23.88;;
27618;SDS011;15039;50.830;4.730;2023-05-14T08:01:52;30.42;;;21.33;;
27618;SDS011;15039;50.830;4.730;2023-05-14T08:04:18;29.52;;;21.80;;
27618;SDS011;15039;50.830;4.730;2023-05-14T08:06:43;30.45;;;23.23;;
27618;SDS011;15039;50.830;4.730;2023-05-14T08:09:10;32.03;;;24.55;;
27618;SDS011;15039;50.830;4.730;2023-05-14T08:11:36;34.42;;;22.95;;
27618;SDS011;15039;50.830;4.730;2023-05-14T08:14:03;29.38;;;23.10;;
27618;SDS011;15039;50.830;4.730;2023-05-14T08:16:28;34.42;;;23.95;;
27618;SDS011;15039;50.830;4.730;2023-05-14T08:18:54;31.40;;;22.70;;
27618;SDS011;15039;50.830;4.730;2023-05-14T08:21:20;30.10;;;22.92;;
27618;SDS011;15039;50.830;4.730;2023-05-14T08:23:46;27.30;;;22.77;;
27618;SDS011;15039;50.830;4.730;2023-05-14T08:26:14;31.92;;;22.75;;
27618;SDS011;15039;50.830;4.730;2023-05-14T08:28:40;32.58;;;23.13;;
27618;SDS011;15039;50.830;4.730;2023-05-14T08:31:05;29.48;;;21.88;;
27618;SDS011;15039;50.830;4.730;2023-05-14T08:33:31;32.85;;;21.88;;
27618;SDS011;15039;50.830;4.730;2023-05-14T08:35:57;30.25;;;22.77;;
27618;SDS011;15039;50.830;4.730;2023-05-14T08:38:24;28.98;;;22.35;;
27618;SDS011;15039;50.830;4.730;2023-05-14T08:40:54;28.70;;;21.27;;
27618;SDS011;15039;50.830;4.730;2023-05-14T08:43:23;30.92;;;22.42;;
27618;SDS011;15039;50.830;4.730;2023-05-14T08:48:21;27.70;;;22.08;;
27618;SDS011;15039;50.830;4.730;2023-05-14T08:50:49;31.77;;;22.58;;
27618;SDS011;15039;50.830;4.730;2023-05-14T08:53:15;31.80;;;24.00;;
27618;SDS011;15039;50.830;4.730;2023-05-14T08:55:41;31.40;;;24.10;;
27618;SDS011;15039;50.830;4.730;2023-05-14T08:58:08;31.83;;;23.45;;
27618;SDS011;15039;50.830;4.730;2023-05-14T09:00:34;31.23;;;22.23;;
27618;SDS011;15039;50.830;4.730;2023-05-14T09:03:02;33.95;;;22.67;;
27618;SDS011;15039;50.830;4.730;2023-05-14T09:05:29;29.42;;;23.13;;
27618;SDS011;15039;50.830;4.730;2023-05-14T09:07:57;32.67;;;23.77;;
27618;SDS011;15039;50.830;4.730;2023-05-14T09:10:23;32.15;;;23.60;;
27618;SDS011;15039;50.830;4.730;2023-05-14T09:12:49;30.40;;;22.90;;
27618;SDS011;15039;50.830;4.730;2023-05-14T09:15:15;31.45;;;21.45;;
27618;SDS011;15039;50.830;4.730;2023-05-14T09:17:42;29.45;;;22.77;;
27618;SDS011;15039;50.830;4.730;2023-05-14T09:20:08;27.45;;;22.27;;
27618;SDS011;15039;50.830;4.730;2023-05-14T09:22:36;32.03;;;23.08;;
27618;SDS011;15039;50.830;4.730;2023-05-14T09:25:09;31.67;;;23.85;;
27618;SDS011;15039;50.830;4.730;2023-05-14T09:27:36;28.52;;;23.00;;
27618;SDS011;15039;50.830;4.730;2023-05-14T09:30:07;30.45;;;22.77;;
27618;SDS011;15039;50.830;4.730;2023-05-14T09:32:37;28.38;;;22.92;;
27618;SDS011;15039;50.830;4.730;2023-05-14T09:35:08;29.75;;;23.92;;
27618;SDS011;15039;50.830;4.730;2023-05-14T09:37:40;30.65;;;23.08;;
27618;SDS011;15039;50.830;4.730;2023-05-14T09:40:07;29.65;;;23.15;;
27618;SDS011;15039;50.830;4.730;2023-05-14T09:42:34;33.58;;;23.67;;
27618;SDS011;15039;50.830;4.730;2023-05-14T09:45:00;27.67;;;23.30;;
27618;SDS011;15039;50.830;4.730;2023-05-14T09:47:28;27.33;;;22.35;;
27618;SDS011;15039;50.830;4.730;2023-05-14T09:49:54;27.55;;;22.63;;
27618;SDS011;15039;50.830;4.730;2023-05-14T09:52:22;28.25;;;22.40;;
27618;SDS011;15039;50.830;4.730;2023-05-14T09:54:49;27.77;;;22.25;;
27618;SDS011;15039;50.830;4.730;2023-05-14T09:57:16;26.65;;;22.08;;
27618;SDS011;15039;50.830;4.730;2023-05-14T09:59:42;25.77;;;22.23;;
27618;SDS011;15039;50.830;4.730;2023-05-14T10:02:14;26.58;;;21.83;;
27618;SDS011;15039;50.830;4.730;2023-05-14T10:04:44;27.23;;;22.63;;
27618;SDS011;15039;50.830;4.730;2023-05-14T10:07:12;30.80;;;21.88;;
27618;SDS011;15039;50.830;4.730;2023-05-14T10:09:38;27.70;;;21.33;;
27618;SDS011;15039;50.830;4.730;2023-05-14T10:12:07;24.17;;;20.80;;
27618;SDS011;15039;50.830;4.730;2023-05-14T10:14:35;28.13;;;20.95;;
27618;SDS011;15039;50.830;4.730;2023-05-14T10:17:12;25.90;;;20.83;;
27618;SDS011;15039;50.830;4.730;2023-05-14T10:19:46;23.27;;;19.60;;
27618;SDS011;15039;50.830;4.730;2023-05-14T10:22:21;28.08;;;20.23;;
27618;SDS011;15039;50.830;4.730;2023-05-14T10:25:01;23.52;;;19.25;;
27618;SDS011;15039;50.830;4.730;2023-05-14T10:27:27;25.25;;;19.58;;
27618;SDS011;15039;50.830;4.730;2023-05-14T10:29:54;22.48;;;20.13;;
27618;SDS011;15039;50.830;4.730;2023-05-14T10:32:23;22.13;;;19.77;;
27618;SDS011;15039;50.830;4.730;2023-05-14T10:34:53;24.02;;;20.05;;
27618;SDS011;15039;50.830;4.730;2023-05-14T10:37:22;23.70;;;19.98;;
27618;SDS011;15039;50.830;4.730;2023-05-14T10:39:51;24.33;;;20.70;;
27618;SDS011;15039;50.830;4.730;2023-05-14T10:42:26;21.48;;;18.35;;
27618;SDS011;15039;50.830;4.730;2023-05-14T10:45:11;24.27;;;20.30;;
27618;SDS011;15039;50.830;4.730;2023-05-14T10:47:41;22.35;;;19.95;;
27618;SDS011;15039;50.830;4.730;2023-05-14T10:50:10;23.05;;;19.30;;
27618;SDS011;15039;50.830;4.730;2023-05-14T10:52:37;23.08;;;20.50;;
27618;SDS011;15039;50.830;4.730;2023-05-14T10:55:06;24.48;;;20.65;;
27618;SDS011;15039;50.830;4.730;2023-05-14T10:57:37;23.83;;;21.10;;
27618;SDS011;15039;50.830;4.730;2023-05-14T11:00:04;22.95;;;20.52;;
27618;SDS011;15039;50.830;4.730;2023-05-14T11:02:40;27.23;;;21.40;;
27618;SDS011;15039;50.830;4.730;2023-05-14T11:05:29;24.23;;;21.73;;
27618;SDS011;15039;50.830;4.730;2023-05-14T11:07:59;25.70;;;21.00;;
27618;SDS011;15039;50.830;4.730;2023-05-14T11:10:37;24.20;;;21.63;;
27618;SDS011;15039;50.830;4.730;2023-05-14T11:13:03;26.38;;;20.83;;
27618;SDS011;15039;50.830;4.730;2023-05-14T11:15:30;26.65;;;22.00;;
27618;SDS011;15039;50.830;4.730;2023-05-14T11:17:56;26.05;;;22.08;;
27618;SDS011;15039;50.830;4.730;2023-05-14T11:20:22;24.00;;;20.52;;
27618;SDS011;15039;50.830;4.730;2023-05-14T11:22:48;24.17;;;21.02;;
27618;SDS011;15039;50.830;4.730;2023-05-14T11:25:15;21.88;;;19.60;;
27618;SDS011;15039;50.830;4.730;2023-05-14T11:27:44;23.20;;;19.88;;
27618;SDS011;15039;50.830;4.730;2023-05-14T11:30:13;22.67;;;18.88;;
27618;SDS011;15039;50.830;4.730;2023-05-14T11:32:43;22.25;;;19.98;;
27618;SDS011;15039;50.830;4.730;2023-05-14T11:35:10;21.50;;;19.10;;
27618;SDS011;15039;50.830;4.730;2023-05-14T11:37:36;21.80;;;19.23;;
27618;SDS011;15039;50.830;4.730;2023-05-14T11:40:05;21.00;;;18.85;;
27618;SDS011;15039;50.830;4.730;2023-05-14T11:42:33;21.30;;;17.85;;
27618;SDS011;15039;50.830;4.730;2023-05-14T11:44:58;22.67;;;19.13;;
27618;SDS011;15039;50.830;4.730;2023-05-14T11:47:25;21.02;;;17.83;;
27618;SDS011;15039;50.830;4.730;2023-05-14T11:49:50;21.63;;;19.33;;
27618;SDS011;15039;50.830;4.730;2023-05-14T11:52:17;22.17;;;18.05;;
27618;SDS011;15039;50.830;4.730;2023-05-14T11:54:46;20.85;;;18.27;;
27618;SDS011;15039;50.830;4.730;2023-05-14T11:57:17;19.15;;;16.95;;
27618;SDS011;15039;50.830;4.730;2023-05-14T11:59:44;20.17;;;17.80;;
27618;SDS011;15039;50.830;4.730;2023-05-14T12:02:11;21.70;;;19.40;;
27618;SDS011;15039;50.830;4.730;2023-05-14T12:04:38;21.55;;;19.35;;
27618;SDS011;15039;50.830;4.730;2023-05-14T12:07:11;20.38;;;17.42;;
27618;SDS011;15039;50.830;4.730;2023-05-14T12:09:46;20.00;;;16.90;;
27618;SDS011;15039;50.830;4.730;2023-05-14T12:12:24;19.83;;;17.73;;
27618;SDS011;15039;50.830;4.730;2023-05-14T12:14:50;18.83;;;16.73;;
27618;SDS011;15039;50.830;4.730;2023-05-14T12:17:21;20.75;;;18.55;;
27618;SDS011;15039;50.830;4.730;2023-05-14T12:19:48;22.40;;;17.83;;
27618;SDS011;15039;50.830;4.730;2023-05-14T12:22:16;20.90;;;18.60;;
27618;SDS011;15039;50.830;4.730;2023-05-14T12:24:53;20.77;;;18.05;;
27618;SDS011;15039;50.830;4.730;2023-05-14T12:27:23;20.80;;;18.60;;
27618;SDS011;15039;50.830;4.730;2023-05-14T12:29:58;22.05;;;18.30;;
27618;SDS011;15039;50.830;4.730;2023-05-14T12:32:26;21.55;;;18.30;;
27618;SDS011;15039;50.830;4.730;2023-05-14T12:34:54;20.55;;;18.38;;
27618;SDS011;15039;50.830;4.730;2023-05-14T12:37:23;20.40;;;18.25;;
27618;SDS011;15039;50.830;4.730;2023-05-14T12:39:48;21.60;;;18.08;;
27618;SDS011;15039;50.830;4.730;2023-05-14T12:42:14;19.20;;;17.10;;
27618;SDS011;15039;50.830;4.730;2023-05-14T12:44:40;18.95;;;16.63;;
27618;SDS011;15039;50.830;4.730;2023-05-14T12:47:09;20.30;;;17.20;;
27618;SDS011;15039;50.830;4.730;2023-05-14T12:49:35;19.95;;;17.73;;
27618;SDS011;15039;50.830;4.730;2023-05-14T12:52:01;20.77;;;16.52;;
27618;SDS011;15039;50.830;4.730;2023-05-14T12:54:26;20.40;;;16.42;;
27618;SDS011;15039;50.830;4.730;2023-05-14T12:56:52;18.50;;;16.30;;
27618;SDS011;15039;50.830;4.730;2023-05-14T12:59:18;18.52;;;16.25;;
27618;SDS011;15039;50.830;4.730;2023-05-14T13:01:44;18.83;;;15.95;;
27618;SDS011;15039;50.830;4.730;2023-05-14T13:04:09;17.35;;;15.52;;
27618;SDS011;15039;50.830;4.730;2023-05-14T13:06:37;16.85;;;15.07;;
27618;SDS011;15039;50.830;4.730;2023-05-14T13:09:03;19.63;;;15.77;;
27618;SDS011;15039;50.830;4.730;2023-05-14T13:11:30;15.80;;;14.15;;
27618;SDS011;15039;50.830;4.730;2023-05-14T13:13:56;15.77;;;13.77;;
27618;SDS011;15039;50.830;4.730;2023-05-14T13:16:26;16.90;;;13.27;;
27618;SDS011;15039;50.830;4.730;2023-05-14T13:19:01;15.77;;;14.15;;
27618;SDS011;15039;50.830;4.730;2023-05-14T13:21:26;16.80;;;13.35;;
27618;SDS011;15039;50.830;4.730;2023-05-14T13:23:52;16.45;;;13.75;;
27618;SDS011;15039;50.830;4.730;2023-05-14T13:26:18;15.27;;;13.05;;
27618;SDS011;15039;50.830;4.730;2023-05-14T13:28:43;16.08;;;14.02;;
27618;SDS011;15039;50.830;4.730;2023-05-14T13:31:16;14.93;;;13.43;;
27618;SDS011;15039;50.830;4.730;2023-05-14T13:33:43;15.55;;;13.27;;
27618;SDS011;15039;50.830;4.730;2023-05-14T13:36:09;14.77;;;12.00;;
27618;SDS011;15039;50.830;4.730;2023-05-14T13:38:37;12.43;;;11.00;;
27618;SDS011;15039;50.830;4.730;2023-05-14T13:41:05;15.15;;;11.90;;
27618;SDS011;15039;50.830;4.730;2023-05-14T13:43:33;12.88;;;11.35;;
27618;SDS011;15039;50.830;4.730;2023-05-14T13:45:59;14.27;;;12.75;;
27618;SDS011;15039;50.830;4.730;2023-05-14T13:48:28;16.48;;;11.63;;
27618;SDS011;15039;50.830;4.730;2023-05-14T13:50:55;14.50;;;10.73;;
27618;SDS011;15039;50.830;4.730;2023-05-14T13:53:21;12.00;;;10.73;;
27618;SDS011;15039;50.830;4.730;2023-05-14T13:55:49;12.23;;;11.02;;
27618;SDS011;15039;50.830;4.730;2023-05-14T13:58:20;16.90;;;10.82;;
27618;SDS011;15039;50.830;4.730;2023-05-14T14:00:47;13.07;;;11.35;;
27618;SDS011;15039;50.830;4.730;2023-05-14T14:03:13;12.05;;;10.68;;
27618;SDS011;15039;50.830;4.730;2023-05-14T14:05:40;13.10;;;10.00;;
27618;SDS011;15039;50.830;4.730;2023-05-14T14:08:05;13.23;;;9.88;;
27618;SDS011;15039;50.830;4.730;2023-05-14T14:10:31;14.90;;;10.10;;
27618;SDS011;15039;50.830;4.730;2023-05-14T14:12:57;14.63;;;10.48;;
27618;SDS011;15039;50.830;4.730;2023-05-14T14:15:22;12.48;;;9.60;;
27618;SDS011;15039;50.830;4.730;2023-05-14T14:17:51;10.23;;;9.23;;
27618;SDS011;15039;50.830;4.730;2023-05-14T14:20:17;10.93;;;9.82;;
27618;SDS011;15039;50.830;4.730;2023-05-14T14:22:44;13.48;;;10.57;;
27618;SDS011;15039;50.830;4.730;2023-05-14T14:25:11;16.17;;;10.85;;
27618;SDS011;15039;50.830;4.730;2023-05-14T14:27:38;11.45;;;10.35;;
27618;SDS011;15039;50.830;4.730;2023-05-14T14:30:08;12.38;;;10.27;;
27618;SDS011;15039;50.830;4.730;2023-05-14T14:32:43;10.98;;;9.85;;
27618;SDS011;15039;50.830;4.730;2023-05-14T14:35:09;13.63;;;10.02;;
27618;SDS011;15039;50.830;4.730;2023-05-14T14:37:36;11.23;;;9.73;;
27618;SDS011;15039;50.830;4.730;2023-05-14T14:40:02;12.32;;;8.70;;
27618;SDS011;15039;50.830;4.730;2023-05-14T14:42:31;11.55;;;10.02;;
27618;SDS011;15039;50.830;4.730;2023-05-14T14:45:01;11.27;;;9.85;;
27618;SDS011;15039;50.830;4.730;2023-05-14T14:47:27;13.95;;;10.52;;
27618;SDS011;15039;50.830;4.730;2023-05-14T14:49:54;12.43;;;10.10;;
27618;SDS011;15039;50.830;4.730;2023-05-14T14:52:22;14.88;;;10.73;;
27618;SDS011;15039;50.830;4.730;2023-05-14T14:54:48;13.23;;;9.70;;
27618;SDS011;15039;50.830;4.730;2023-05-14T14:57:14;12.38;;;9.27;;
27618;SDS011;15039;50.830;4.730;2023-05-14T14:59:40;12.23;;;9.27;;
27618;SDS011;15039;50.830;4.730;2023-05-14T15:02:07;11.80;;;10.07;;